Buoy 13608

sailwx.info

Track history (hours):
 
Tides and Currents Weather Stations Pressure Air Temp Water Temp Dewpoint Dewpoint Depression Visibility Wind Speed Wind Dir Waves Ship Positions

Drifting buoy 13608

Last reported at 2018-Jun-05 04:51 UTC. Time now 2018-Jun-24 10:58 UTC.
Position N 23°20' W 021°41'.
Warning: this ship's position is 19 days out of date.

Water temperature 21.2 ° C

Date/timePositionNaut miles runAvg speedWind from/ knotsBaromVisibWave heightAir tempDewpointWater temp
2018-Jun-05 04:51N 23°20' W 021°41'2 0.4 21.2
2018-Jun-05 00:00N 23°20' W 021°40'0 0.0 21.3
2018-Jun-04 23:16N 23°20' W 021°40'0 0.0 21.3
2018-Jun-04 23:09N 23°20' W 021°40'0 0.0 21.3
2018-Jun-04 22:16N 23°20' W 021°40'136.0 21.3
2018-Jun-04 22:15N 23°21' W 021°40'0 0.0 21.3
2018-Jun-04 21:38N 23°21' W 021°40'1 4.0 21.3
2018-Jun-04 21:29N 23°20' W 021°40'0 0.0 21.3
2018-Jun-04 20:38N 23°20' W 021°40'166.1 21.4
2018-Jun-04 20:37N 23°20' W 021°41'0 0.0 21.4
2018-Jun-04 20:24N 23°20' W 021°41'1 0.7 21.4
2018-Jun-04 18:44N 23°20' W 021°40'0 0.0 21.4
2018-Jun-04 18:42N 23°20' W 021°40'0 0.0 21.4
2018-Jun-04 17:59N 23°20' W 021°40'1 0.4 21.5
2018-Jun-04 16:17N 23°20' W 021°40'1 9.4 21.4
2018-Jun-04 16:10N 23°20' W 021°38'1 0.2 21.4
2018-Jun-04 12:44N 23°19' W 021°38'0 0.0 21.3
2018-Jun-04 12:08N 23°19' W 021°38'0 0.0 21.3
2018-Jun-04 12:02N 23°19' W 021°38'1 9.8 21.3
2018-Jun-04 11:57N 23°20' W 021°37'0 0.0 21.3
2018-Jun-04 11:08N 23°20' W 021°37'0 0.0 21.2
2018-Jun-04 11:03N 23°20' W 021°37'0 0.0 21.2
2018-Jun-04 10:57N 23°20' W 021°37'1 0.7 21.2
2018-Jun-04 09:15N 23°20' W 021°36'0 0.0 21.2
2018-Jun-04 08:01N 23°20' W 021°36'0 0.0 21.2
2018-Jun-04 07:54N 23°20' W 021°36'0 0.0 21.2
2018-Jun-04 07:23N 23°20' W 021°36'0 0.0 21.2
2018-Jun-04 06:45N 23°20' W 021°36'0 0.0 21.2
2018-Jun-04 06:39N 23°20' W 021°36'0 0.0 21.2
2018-Jun-04 06:23N 23°20' W 021°36'1 0.4 21.2
2018-Jun-04 05:03N 23°20' W 021°35'1 8.4 21.2
2018-Jun-04 04:54N 23°21' W 021°34'0 0.0 21.2
2018-Jun-04 00:16N 23°21' W 021°34'0 0.0 21.4
2018-Jun-03 23:38N 23°21' W 021°34'0 0.0 21.4
2018-Jun-03 23:30N 23°21' W 021°34'0 0.0 21.4
2018-Jun-03 22:41N 23°21' W 021°34'0 0.0 21.4
2018-Jun-03 22:38N 23°21' W 021°34'0 0.0 21.4
2018-Jun-03 22:36N 23°21' W 021°34'0 0.0 21.4
2018-Jun-03 22:29N 23°21' W 021°34'124.4 21.4
2018-Jun-03 22:27N 23°22' W 021°34'0 0.0 21.4
2018-Jun-03 21:56N 23°22' W 021°34'1 0.8 21.4
2018-Jun-03 20:56N 23°21' W 021°33'1 5.5 21.4
2018-Jun-03 20:50N 23°21' W 021°34'0 0.0 21.4
2018-Jun-03 20:40N 23°21' W 021°34'0 0.0 21.4
2018-Jun-03 19:16N 23°21' W 021°34'0 0.0 21.4
2018-Jun-03 19:09N 23°21' W 021°34'0 0.0 21.4
2018-Jun-03 18:12N 23°21' W 021°34'1 0.5 21.4
2018-Jun-03 16:31N 23°20' W 021°33'1 9.4 21.4
2018-Jun-03 16:23N 23°21' W 021°32'0 0.0 21.4
2018-Jun-03 13:02N 23°21' W 021°32'0 0.0 21.3
2018-Jun-03 12:25N 23°21' W 021°32'0 0.0 21.3
2018-Jun-03 12:22N 23°21' W 021°32'0 0.0 21.3
2018-Jun-03 12:16N 23°21' W 021°32'0 0.0 21.3
2018-Jun-03 11:24N 23°21' W 021°32'1 8.3 21.2
2018-Jun-03 11:20N 23°21' W 021°31'0 0.0 21.2
2018-Jun-03 11:09N 23°21' W 021°31'0 0.0 21.2
2018-Jun-03 10:46N 23°21' W 021°31'1 5.5 21.2
2018-Jun-03 10:40N 23°21' W 021°31'0 0.0 21.2
2018-Jun-03 09:46N 23°21' W 021°31'0 0.0 21.2
2018-Jun-03 09:29N 23°21' W 021°31'116.3 21.2
2018-Jun-03 09:26N 23°22' W 021°31'1 0.9 21.2
2018-Jun-03 08:29N 23°21' W 021°31'0 0.0 21.2
2018-Jun-03 07:49N 23°21' W 021°31'0 0.0 21.2
2018-Jun-03 06:51N 23°21' W 021°31'2 0.9 21.2
2018-Jun-03 05:06N 23°21' W 021°29'0 0.0 21.2
2018-Jun-02 23:03N 23°21' W 021°29'0 0.0 21.3
2018-Jun-02 22:59N 23°21' W 021°29'0 0.0 21.3
2018-Jun-02 22:55N 23°21' W 021°29'0 0.0 21.3
2018-Jun-02 22:41N 23°21' W 021°29'0 0.0 21.3
2018-Jun-02 22:21N 23°21' W 021°29'211.7 21.3
2018-Jun-02 22:12N 23°20' W 021°31'0 0.0 21.3
2018-Jun-02 21:15N 23°20' W 021°31'313.8 21.3
2018-Jun-02 21:03N 23°20' W 021°28'0 0.0 21.3
2018-Jun-02 20:52N 23°20' W 021°28'1 0.5 21.3
2018-Jun-02 19:46N 23°20' W 021°28'1 2.1 21.4
2018-Jun-02 19:30N 23°20' W 021°28'1 4.7 21.4
2018-Jun-02 19:23N 23°20' W 021°28'0 0.0 21.4
2018-Jun-02 19:15N 23°20' W 021°28'0 0.0 21.4
2018-Jun-02 18:25N 23°20' W 021°28'1 5.5 21.4
2018-Jun-02 18:19N 23°20' W 021°28'0 0.0 21.4
2018-Jun-02 18:03N 23°20' W 021°28'0 0.0 21.4
2018-Jun-02 16:43N 23°20' W 021°28'2 9.0 21.4
2018-Jun-02 16:32N 23°20' W 021°26'0 0.0 21.4
2018-Jun-02 12:47N 23°20' W 021°26'0 0.0 21.3
2018-Jun-02 11:45N 23°20' W 021°26'0 0.0 21.3
2018-Jun-02 11:19N 23°20' W 021°26'0 0.0 21.2
2018-Jun-02 11:07N 23°20' W 021°26'0 0.0 21.2
2018-Jun-02 10:58N 23°20' W 021°26'0 0.0 21.2
2018-Jun-02 10:07N 23°20' W 021°26'1 1.8 21.2
2018-Jun-02 09:40N 23°21' W 021°25'0 0.0 21.2
2018-Jun-02 09:00N 23°21' W 021°25'0 0.0 21.2
2018-Jun-02 08:01N 23°21' W 021°25'0 0.0 21.2
2018-Jun-02 07:25N 23°21' W 021°25'0 0.0 21.2
2018-Jun-02 07:03N 23°21' W 021°25'0 0.0 21.2
2018-Jun-02 05:43N 23°21' W 021°25'0 0.0 21.2
2018-Jun-02 05:25N 23°21' W 021°25'1 5.4 21.2
2018-Jun-02 05:16N 23°20' W 021°25'0 0.0 21.2
2018-Jun-01 23:22N 23°20' W 021°25'1 1.0 21.3
2018-Jun-01 22:49N 23°20' W 021°25'0 0.0 21.3
2018-Jun-01 22:42N 23°20' W 021°25'2 1.7 21.3
2018-Jun-01 21:40N 23°21' W 021°23'1 9.8 21.4
2018-Jun-01 21:35N 23°20' W 021°24'1 2.4 21.4
2018-Jun-01 21:15N 23°21' W 021°23'1 4.4 21.4
2018-Jun-01 21:04N 23°20' W 021°24'0 0.0 21.4
2018-Jun-01 20:17N 23°20' W 021°24'1 2.4 21.4
2018-Jun-01 19:49N 23°20' W 021°23'0 0.0 21.4
2018-Jun-01 19:29N 23°20' W 021°23'0 0.0 21.4
2018-Jun-01 18:28N 23°20' W 021°23'1 5.8 21.4
2018-Jun-01 18:15N 23°20' W 021°24'1 0.6 21.4
2018-Jun-01 16:55N 23°20' W 021°23'2 9.6 21.4
2018-Jun-01 16:44N 23°20' W 021°22'0 0.0 21.4
2018-Jun-01 12:06N 23°20' W 021°22'0 0.0 21.3
2018-Jun-01 12:02N 23°20' W 021°22'1 1.1 21.3
2018-Jun-01 11:30N 23°20' W 021°22'0 0.0 21.3
2018-Jun-01 11:28N 23°20' W 021°22'1 1.1 21.3
2018-Jun-01 10:19N 23°22' W 021°22'0 0.0 21.2
2018-Jun-01 09:48N 23°22' W 021°22'0 0.0 21.2
2018-Jun-01 08:39N 23°22' W 021°22'1 1.4 21.2
2018-Jun-01 08:14N 23°21' W 021°22'1 1.9 21.2
2018-Jun-01 07:55N 23°22' W 021°22'1 0.9 21.2
2018-Jun-01 07:15N 23°21' W 021°22'1 0.8 21.2
2018-Jun-01 06:15N 23°22' W 021°22'1 0.9 21.2
2018-Jun-01 05:37N 23°21' W 021°22'0 0.0 21.2
2018-Jun-01 05:30N 23°21' W 021°22'0 0.0 21.2
2018-Jun-01 05:26N 23°21' W 021°22'0 0.0 21.2
2018-May-31 23:43N 23°21' W 021°22'1 9.8 21.3
2018-May-31 23:38N 23°20' W 021°22'0 0.0 21.3
2018-May-31 23:03N 23°20' W 021°22'1 0.6 21.4
2018-May-31 22:03N 23°20' W 021°22'0 0.0 21.4
2018-May-31 21:25N 23°20' W 021°22'1 3.7 21.4
2018-May-31 21:16N 23°20' W 021°22'0 0.0 21.4
2018-May-31 20:45N 23°20' W 021°22'0 0.0 21.4
2018-May-31 20:16N 23°20' W 021°22'0 0.0 21.4
2018-May-31 19:43N 23°20' W 021°22'1 1.1 21.4
2018-May-31 19:09N 23°19' W 021°22'0 0.0 21.4
2018-May-31 18:43N 23°19' W 021°22'3 1.7 21.4
2018-May-31 17:02N 23°19' W 021°19'0 0.0 21.4
2018-May-31 16:56N 23°19' W 021°19'0 0.0 21.4
2018-May-31 15:20N 23°19' W 021°19'0 0.0 21.4
2018-May-31 12:27N 23°19' W 021°19'0 0.0 21.3
2018-May-31 11:51N 23°19' W 021°19'1 1.1 21.3
2018-May-31 10:42N 23°19' W 021°17'0 0.0 21.3
2018-May-31 10:07N 23°19' W 021°17'1 4.4 21.3
2018-May-31 09:56N 23°20' W 021°18'1 0.4 21.2
2018-May-31 08:26N 23°20' W 021°17'1 9.0 21.2
2018-May-31 08:22N 23°20' W 021°17'0 0.0 21.2
2018-May-31 07:28N 23°20' W 021°17'0 0.0 21.2
2018-May-31 07:24N 23°20' W 021°17'0 0.0 21.2
2018-May-31 06:48N 23°20' W 021°17'1 0.8 21.3
2018-May-31 05:46N 23°20' W 021°18'0 0.0 21.3
2018-May-31 05:39N 23°20' W 021°18'0 0.0 21.3
2018-May-31 04:06N 23°20' W 021°18'1 8.1 21.3
2018-May-31 04:00N 23°20' W 021°19'0 0.0 21.3
2018-May-31 00:02N 23°20' W 021°19'235.2 21.4
2018-May-30 23:59N 23°20' W 021°20'0 0.0 21.4
2018-May-30 23:15N 23°20' W 021°20'0 0.0 21.4
2018-May-30 22:24N 23°20' W 021°20'0 0.0 21.4
2018-May-30 22:21N 23°20' W 021°20'2 2.2 21.4
2018-May-30 21:32N 23°19' W 021°19'0 0.0 21.4
2018-May-30 21:15N 23°19' W 021°19'0 0.0 21.4
2018-May-30 19:55N 23°19' W 021°19'0 0.0 21.4
2018-May-30 19:41N 23°19' W 021°19'1 1.5 21.4
2018-May-30 19:08N 23°19' W 021°18'0 0.0 21.4
2018-May-30 17:55N 23°19' W 021°18'0 0.0 21.4
2018-May-30 17:15N 23°19' W 021°18'227.4 21.4
2018-May-30 17:10N 23°18' W 021°16'0 0.0 21.4
2018-May-30 15:32N 23°18' W 021°16'0 0.0 21.4
2018-May-30 12:48N 23°18' W 021°16'0 0.0 21.3
2018-May-30 12:01N 23°18' W 021°16'0 0.0 21.2
2018-May-30 11:09N 23°18' W 021°16'1 5.5 21.2
2018-May-30 11:03N 23°18' W 021°15'1 0.7 21.2
2018-May-30 10:16N 23°18' W 021°16'1 6.0 21.2
2018-May-30 10:10N 23°19' W 021°16'0 0.0 21.2
2018-May-30 09:30N 23°19' W 021°16'133.1 21.2
2018-May-30 09:29N 23°19' W 021°15'1 4.1 21.2
2018-May-30 09:21N 23°19' W 021°16'0 0.0 21.2
2018-May-30 08:54N 23°19' W 021°16'0 0.0 21.2
2018-May-30 08:30N 23°19' W 021°16'0 0.0 21.2
2018-May-30 08:00N 23°19' W 021°16'1 5.8 21.2
2018-May-30 07:47N 23°19' W 021°14'0 0.0 21.2
2018-May-30 07:34N 23°19' W 021°14'1 2.0 21.2
2018-May-30 07:16N 23°19' W 021°14'1 0.5 21.2
2018-May-30 06:00N 23°19' W 021°14'0 0.0 21.2
2018-May-30 05:56N 23°19' W 021°14'1 6.6 21.2
2018-May-30 05:51N 23°19' W 021°15'1 2.5 21.2
2018-May-30 05:38N 23°19' W 021°14'1 0.4 21.2
2018-May-30 04:14N 23°19' W 021°15'0 0.0 21.3
2018-May-29 23:42N 23°19' W 021°15'0 0.0 21.3
2018-May-29 22:46N 23°19' W 021°15'0 0.0 21.3
2018-May-29 22:40N 23°19' W 021°15'1 0.9 21.3
2018-May-29 22:04N 23°19' W 021°16'0 0.0 21.3
2018-May-29 21:55N 23°19' W 021°16'0 0.0 21.3
2018-May-29 21:49N 23°19' W 021°16'0 0.0 21.3
2018-May-29 21:13N 23°19' W 021°16'0 0.0 21.3
2018-May-29 21:04N 23°19' W 021°16'0 0.0 21.3
2018-May-29 21:00N 23°19' W 021°16'0 0.0 21.3
2018-May-29 20:09N 23°19' W 021°16'111.0 21.3
2018-May-29 20:06N 23°19' W 021°16'1 1.6 21.3
2018-May-29 19:35N 23°20' W 021°17'1 8.1 21.4
2018-May-29 19:29N 23°19' W 021°16'1 2.1 21.4
2018-May-29 19:06N 23°20' W 021°17'0 0.0 21.4
2018-May-29 18:29N 23°20' W 021°17'1 1.3 21.4
2018-May-29 17:29N 23°19' W 021°16'1 6.0 21.4
2018-May-29 17:17N 23°17' W 021°16'0 0.0 21.4
2018-May-29 15:48N 23°17' W 021°16'1 0.1 21.4
2018-May-29 11:28N 23°17' W 021°16'0 0.0 21.2
2018-May-29 11:22N 23°17' W 021°16'0 0.0 21.2
2018-May-29 10:44N 23°17' W 021°16'0 0.0 21.2
2018-May-29 10:42N 23°17' W 021°16'1 4.7 21.1
2018-May-29 10:28N 23°17' W 021°14'0 0.0 21.1
2018-May-29 09:57N 23°17' W 021°14'0 0.0 21.1
2018-May-29 08:24N 23°17' W 021°14'0 0.0 21.1
2018-May-29 08:14N 23°17' W 021°14'0 0.0 21.1
2018-May-29 07:50N 23°17' W 021°14'0 0.0 21.1
2018-May-29 06:12N 23°17' W 021°14'0 0.0 21.1
2018-May-29 06:08N 23°17' W 021°14'1 0.3 21.1
2018-May-29 04:28N 23°17' W 021°14'224.5 21.1
2018-May-29 04:23N 23°19' W 021°12'0 0.0 21.1
2018-May-28 23:07N 23°19' W 021°12'1 1.0 21.2
2018-May-28 22:16N 23°18' W 021°13'0 0.0 21.2
2018-May-28 21:59N 23°18' W 021°13'1 1.4 21.2
2018-May-28 21:34N 23°19' W 021°13'0 0.0 21.2
2018-May-28 21:25N 23°19' W 021°13'1 4.0 21.2
2018-May-28 21:16N 23°19' W 021°13'0 0.0 21.2
2018-May-28 20:41N 23°19' W 021°13'1 1.4 21.3
2018-May-28 20:16N 23°19' W 021°13'1 2.0 21.3
2018-May-28 19:58N 23°19' W 021°13'0 0.0 21.3
2018-May-28 19:03N 23°19' W 021°13'1 0.8 21.3
2018-May-28 18:16N 23°20' W 021°13'1 1.4 21.4
2018-May-28 17:42N 23°19' W 021°13'1 0.7 21.4
2018-May-28 15:58N 23°20' W 021°13'0 0.0 21.4
2018-May-28 11:53N 23°20' W 021°13'1 5.5 21.1
2018-May-28 11:47N 23°20' W 021°14'116.3 21.1
2018-May-28 11:44N 23°20' W 021°13'0 0.0 21.1
2018-May-28 11:09N 23°20' W 021°13'0 0.0 21.1
2018-May-28 11:04N 23°20' W 021°13'0 0.0 21.1
2018-May-28 10:38N 23°20' W 021°13'0 0.0 21.1
2018-May-28 10:13N 23°20' W 021°13'0 0.0 21.0
2018-May-28 10:09N 23°20' W 021°13'112.0 21.0
2018-May-28 10:06N 23°19' W 021°13'0 0.0 21.0
2018-May-28 09:02N 23°19' W 021°13'0 0.0 21.0
2018-May-28 08:58N 23°19' W 021°13'0 0.0 21.0
2018-May-28 08:47N 23°19' W 021°13'1 1.6 21.0
2018-May-28 08:17N 23°20' W 021°13'118.0 21.0
2018-May-28 08:15N 23°19' W 021°13'0 0.0 21.0
2018-May-28 06:40N 23°19' W 021°13'0 0.0 21.0
2018-May-28 06:29N 23°19' W 021°13'0 0.0 21.0
2018-May-28 06:17N 23°19' W 021°13'1 8.3 21.0
2018-May-28 06:13N 23°19' W 021°12'0 0.0 21.0
2018-May-28 04:42N 23°19' W 021°12'321.5 21.1
2018-May-28 04:35N 23°20' W 021°10'0 0.0 21.1
2018-May-27 23:26N 23°20' W 021°10'1 0.8 21.1
2018-May-27 22:44N 23°20' W 021°09'1 6.6 21.1
2018-May-27 22:39N 23°20' W 021°10'1 8.3 21.1
2018-May-27 22:35N 23°20' W 021°09'0 0.0 21.1
2018-May-27 22:12N 23°20' W 021°09'1 3.3 21.1
2018-May-27 22:02N 23°20' W 021°10'0 0.0 21.1
2018-May-27 21:43N 23°20' W 021°10'1 8.3 21.1
2018-May-27 21:39N 23°20' W 021°09'0 0.0 21.1
2018-May-27 21:10N 23°20' W 021°09'1 0.9 21.2
2018-May-27 20:30N 23°21' W 021°09'0 0.0 21.2
2018-May-27 19:30N 23°21' W 021°09'0 0.0 21.2
2018-May-27 18:41N 23°21' W 021°09'1 0.8 21.2
2018-May-27 17:54N 23°22' W 021°09'1 5.4 21.2
2018-May-27 17:45N 23°22' W 021°08'0 0.0 21.2
2018-May-27 16:12N 23°22' W 021°08'0 0.0 21.2
2018-May-27 16:10N 23°22' W 021°08'2 0.4 21.2
2018-May-27 12:10N 23°24' W 021°08'1 0.6 21.1
2018-May-27 10:50N 23°23' W 021°09'1 1.3 21.1
2018-May-27 10:25N 23°23' W 021°08'1 0.4 21.1
2018-May-27 09:05N 23°23' W 021°09'0 0.0 21.0
2018-May-27 08:45N 23°23' W 021°09'0 0.0 21.0
2018-May-27 07:12N 23°23' W 021°09'0 0.0 21.0
2018-May-27 06:31N 23°23' W 021°09'112.2 21.0
2018-May-27 06:27N 23°24' W 021°08'0 0.0 21.0
2018-May-27 05:29N 23°24' W 021°08'1 0.1 21.0
2018-May-26 23:45N 23°23' W 021°08'0 0.0 21.1
2018-May-26 23:42N 23°23' W 021°08'0 0.0 21.1
2018-May-26 23:04N 23°23' W 021°08'1 4.1 21.1
2018-May-26 22:56N 23°23' W 021°08'0 0.0 21.1
2018-May-26 22:22N 23°23' W 021°08'0 0.0 21.1
2018-May-26 22:20N 23°23' W 021°08'0 0.0 21.1
2018-May-26 22:02N 23°23' W 021°08'1 1.5 21.1
2018-May-26 21:38N 23°24' W 021°08'0 0.0 21.1
2018-May-26 21:26N 23°24' W 021°08'1 5.5 21.1
2018-May-26 21:20N 23°24' W 021°07'1 1.1 21.1
2018-May-26 20:47N 23°23' W 021°07'0 0.0 21.1
2018-May-26 20:44N 23°23' W 021°07'0 0.0 21.1
2018-May-26 20:04N 23°23' W 021°07'0 0.0 21.1
2018-May-26 19:09N 23°23' W 021°07'1 0.7 21.1
2018-May-26 18:20N 23°23' W 021°07'0 0.0 21.2
2018-May-26 18:04N 23°23' W 021°07'216.3 21.2
2018-May-26 17:58N 23°25' W 021°05'0 0.0 21.2
2018-May-26 16:24N 23°25' W 021°05'314.4 21.2
2018-May-26 16:13N 23°27' W 021°04'0 0.0 21.2
2018-May-26 12:30N 23°27' W 021°04'0 0.0 21.1
2018-May-26 12:28N 23°27' W 021°04'0 0.0 21.1
2018-May-26 11:51N 23°27' W 021°04'1 4.7 21.0
2018-May-26 11:44N 23°27' W 021°05'0 0.0 21.0
2018-May-26 11:02N 23°27' W 021°05'0 0.0 21.0
2018-May-26 10:52N 23°27' W 021°05'1 1.2 21.0
2018-May-26 10:12N 23°28' W 021°04'0 0.0 21.0
2018-May-26 09:30N 23°28' W 021°04'0 0.0 21.0
2018-May-26 09:23N 23°28' W 021°04'1 4.1 21.0
2018-May-26 09:15N 23°28' W 021°05'0 0.0 21.0
2018-May-26 09:08N 23°28' W 021°05'0 0.0 21.0
2018-May-26 07:59N 23°28' W 021°05'0 0.0 21.0
2018-May-26 07:52N 23°28' W 021°05'0 0.0 21.0
2018-May-26 07:48N 23°28' W 021°05'0 0.0 21.0
2018-May-26 06:41N 23°28' W 021°05'1 0.9 21.0
2018-May-26 06:03N 23°28' W 021°05'2 1.7 21.0
2018-May-26 05:06N 23°28' W 021°07'316.7 21.0
2018-May-26 04:57N 23°29' W 021°05'   21.0
Track history (hours):
 
Tides and Currents Weather Stations Pressure Air Temp Water Temp Dewpoint Dewpoint Depression Visibility Wind Speed Wind Dir Waves Ship Positions

Drifting buoy 13608

Last reported at 2018-Jun-05 04:51 UTC. Time now 2018-Jun-24 10:58 UTC.
Position N 23°20' W 021°41'.
Warning: this ship's position is 19 days out of date.

Water temperature 21.2 ° C

Date/timePositionNaut miles runAvg speedWind from/ knotsBaromVisibWave heightAir tempDewpointWater temp
2018-Jun-05 04:51N 23°20' W 021°41'2 0.4 21.2
2018-Jun-05 00:00N 23°20' W 021°40'0 0.0 21.3
2018-Jun-04 23:16N 23°20' W 021°40'0 0.0 21.3
2018-Jun-04 23:09N 23°20' W 021°40'0 0.0 21.3
2018-Jun-04 22:16N 23°20' W 021°40'136.0 21.3
2018-Jun-04 22:15N 23°21' W 021°40'0 0.0 21.3
2018-Jun-04 21:38N 23°21' W 021°40'1 4.0 21.3
2018-Jun-04 21:29N 23°20' W 021°40'0 0.0 21.3
2018-Jun-04 20:38N 23°20' W 021°40'166.1 21.4
2018-Jun-04 20:37N 23°20' W 021°41'0 0.0 21.4
2018-Jun-04 20:24N 23°20' W 021°41'1 0.7 21.4
2018-Jun-04 18:44N 23°20' W 021°40'0 0.0 21.4
2018-Jun-04 18:42N 23°20' W 021°40'0 0.0 21.4
2018-Jun-04 17:59N 23°20' W 021°40'1 0.4 21.5
2018-Jun-04 16:17N 23°20' W 021°40'1 9.4 21.4
2018-Jun-04 16:10N 23°20' W 021°38'1 0.2 21.4
2018-Jun-04 12:44N 23°19' W 021°38'0 0.0 21.3
2018-Jun-04 12:08N 23°19' W 021°38'0 0.0 21.3
2018-Jun-04 12:02N 23°19' W 021°38'1 9.8 21.3
2018-Jun-04 11:57N 23°20' W 021°37'0 0.0 21.3
2018-Jun-04 11:08N 23°20' W 021°37'0 0.0 21.2
2018-Jun-04 11:03N 23°20' W 021°37'0 0.0 21.2
2018-Jun-04 10:57N 23°20' W 021°37'1 0.7 21.2
2018-Jun-04 09:15N 23°20' W 021°36'0 0.0 21.2
2018-Jun-04 08:01N 23°20' W 021°36'0 0.0 21.2
2018-Jun-04 07:54N 23°20' W 021°36'0 0.0 21.2
2018-Jun-04 07:23N 23°20' W 021°36'0 0.0 21.2
2018-Jun-04 06:45N 23°20' W 021°36'0 0.0 21.2
2018-Jun-04 06:39N 23°20' W 021°36'0 0.0 21.2
2018-Jun-04 06:23N 23°20' W 021°36'1 0.4 21.2
2018-Jun-04 05:03N 23°20' W 021°35'1 8.4 21.2
2018-Jun-04 04:54N 23°21' W 021°34'0 0.0 21.2
2018-Jun-04 00:16N 23°21' W 021°34'0 0.0 21.4
2018-Jun-03 23:38N 23°21' W 021°34'0 0.0 21.4
2018-Jun-03 23:30N 23°21' W 021°34'0 0.0 21.4
2018-Jun-03 22:41N 23°21' W 021°34'0 0.0 21.4
2018-Jun-03 22:38N 23°21' W 021°34'0 0.0 21.4
2018-Jun-03 22:36N 23°21' W 021°34'0 0.0 21.4
2018-Jun-03 22:29N 23°21' W 021°34'124.4 21.4
2018-Jun-03 22:27N 23°22' W 021°34'0 0.0 21.4
2018-Jun-03 21:56N 23°22' W 021°34'1 0.8 21.4
2018-Jun-03 20:56N 23°21' W 021°33'1 5.5 21.4
2018-Jun-03 20:50N 23°21' W 021°34'0 0.0 21.4
2018-Jun-03 20:40N 23°21' W 021°34'0 0.0 21.4
2018-Jun-03 19:16N 23°21' W 021°34'0 0.0 21.4
2018-Jun-03 19:09N 23°21' W 021°34'0 0.0 21.4
2018-Jun-03 18:12N 23°21' W 021°34'1 0.5 21.4
2018-Jun-03 16:31N 23°20' W 021°33'1 9.4 21.4
2018-Jun-03 16:23N 23°21' W 021°32'0 0.0 21.4
2018-Jun-03 13:02N 23°21' W 021°32'0 0.0 21.3
2018-Jun-03 12:25N 23°21' W 021°32'0 0.0 21.3
2018-Jun-03 12:22N 23°21' W 021°32'0 0.0 21.3
2018-Jun-03 12:16N 23°21' W 021°32'0 0.0 21.3
2018-Jun-03 11:24N 23°21' W 021°32'1 8.3 21.2
2018-Jun-03 11:20N 23°21' W 021°31'0 0.0 21.2
2018-Jun-03 11:09N 23°21' W 021°31'0 0.0 21.2
2018-Jun-03 10:46N 23°21' W 021°31'1 5.5 21.2
2018-Jun-03 10:40N 23°21' W 021°31'0 0.0 21.2
2018-Jun-03 09:46N 23°21' W 021°31'0 0.0 21.2
2018-Jun-03 09:29N 23°21' W 021°31'116.3 21.2
2018-Jun-03 09:26N 23°22' W 021°31'1 0.9 21.2
2018-Jun-03 08:29N 23°21' W 021°31'0 0.0 21.2
2018-Jun-03 07:49N 23°21' W 021°31'0 0.0 21.2
2018-Jun-03 06:51N 23°21' W 021°31'2 0.9 21.2
2018-Jun-03 05:06N 23°21' W 021°29'0 0.0 21.2
2018-Jun-02 23:03N 23°21' W 021°29'0 0.0 21.3
2018-Jun-02 22:59N 23°21' W 021°29'0 0.0 21.3
2018-Jun-02 22:55N 23°21' W 021°29'0 0.0 21.3
2018-Jun-02 22:41N 23°21' W 021°29'0 0.0 21.3
2018-Jun-02 22:21N 23°21' W 021°29'211.7 21.3
2018-Jun-02 22:12N 23°20' W 021°31'0 0.0 21.3
2018-Jun-02 21:15N 23°20' W 021°31'313.8 21.3
2018-Jun-02 21:03N 23°20' W 021°28'0 0.0 21.3
2018-Jun-02 20:52N 23°20' W 021°28'1 0.5 21.3
2018-Jun-02 19:46N 23°20' W 021°28'1 2.1 21.4
2018-Jun-02 19:30N 23°20' W 021°28'1 4.7 21.4
2018-Jun-02 19:23N 23°20' W 021°28'0 0.0 21.4
2018-Jun-02 19:15N 23°20' W 021°28'0 0.0 21.4
2018-Jun-02 18:25N 23°20' W 021°28'1 5.5 21.4
2018-Jun-02 18:19N 23°20' W 021°28'0 0.0 21.4
2018-Jun-02 18:03N 23°20' W 021°28'0 0.0 21.4
2018-Jun-02 16:43N 23°20' W 021°28'2 9.0 21.4
2018-Jun-02 16:32N 23°20' W 021°26'0 0.0 21.4
2018-Jun-02 12:47N 23°20' W 021°26'0 0.0 21.3
2018-Jun-02 11:45N 23°20' W 021°26'0 0.0 21.3
2018-Jun-02 11:19N 23°20' W 021°26'0 0.0 21.2
2018-Jun-02 11:07N 23°20' W 021°26'0 0.0 21.2
2018-Jun-02 10:58N 23°20' W 021°26'0 0.0 21.2
2018-Jun-02 10:07N 23°20' W 021°26'1 1.8 21.2
2018-Jun-02 09:40N 23°21' W 021°25'0 0.0 21.2
2018-Jun-02 09:00N 23°21' W 021°25'0 0.0 21.2
2018-Jun-02 08:01N 23°21' W 021°25'0 0.0 21.2
2018-Jun-02 07:25N 23°21' W 021°25'0 0.0 21.2
2018-Jun-02 07:03N 23°21' W 021°25'0 0.0 21.2
2018-Jun-02 05:43N 23°21' W 021°25'0 0.0 21.2
2018-Jun-02 05:25N 23°21' W 021°25'1 5.4 21.2
2018-Jun-02 05:16N 23°20' W 021°25'0 0.0 21.2
2018-Jun-01 23:22N 23°20' W 021°25'1 1.0 21.3
2018-Jun-01 22:49N 23°20' W 021°25'0 0.0 21.3
2018-Jun-01 22:42N 23°20' W 021°25'2 1.7 21.3
2018-Jun-01 21:40N 23°21' W 021°23'1 9.8 21.4
2018-Jun-01 21:35N 23°20' W 021°24'1 2.4 21.4
2018-Jun-01 21:15N 23°21' W 021°23'1 4.4 21.4
2018-Jun-01 21:04N 23°20' W 021°24'0 0.0 21.4
2018-Jun-01 20:17N 23°20' W 021°24'1 2.4 21.4
2018-Jun-01 19:49N 23°20' W 021°23'0 0.0 21.4
2018-Jun-01 19:29N 23°20' W 021°23'0 0.0 21.4
2018-Jun-01 18:28N 23°20' W 021°23'1 5.8 21.4
2018-Jun-01 18:15N 23°20' W 021°24'1 0.6 21.4
2018-Jun-01 16:55N 23°20' W 021°23'2 9.6 21.4
2018-Jun-01 16:44N 23°20' W 021°22'0 0.0 21.4
2018-Jun-01 12:06N 23°20' W 021°22'0 0.0 21.3
2018-Jun-01 12:02N 23°20' W 021°22'1 1.1 21.3
2018-Jun-01 11:30N 23°20' W 021°22'0 0.0 21.3
2018-Jun-01 11:28N 23°20' W 021°22'1 1.1 21.3
2018-Jun-01 10:19N 23°22' W 021°22'0 0.0 21.2
2018-Jun-01 09:48N 23°22' W 021°22'0 0.0 21.2
2018-Jun-01 08:39N 23°22' W 021°22'1 1.4 21.2
2018-Jun-01 08:14N 23°21' W 021°22'1 1.9 21.2
2018-Jun-01 07:55N 23°22' W 021°22'1 0.9 21.2
2018-Jun-01 07:15N 23°21' W 021°22'1 0.8 21.2
2018-Jun-01 06:15N 23°22' W 021°22'1 0.9 21.2
2018-Jun-01 05:37N 23°21' W 021°22'0 0.0 21.2
2018-Jun-01 05:30N 23°21' W 021°22'0 0.0 21.2
2018-Jun-01 05:26N 23°21' W 021°22'0 0.0 21.2
2018-May-31 23:43N 23°21' W 021°22'1 9.8 21.3
2018-May-31 23:38N 23°20' W 021°22'0 0.0 21.3
2018-May-31 23:03N 23°20' W 021°22'1 0.6 21.4
2018-May-31 22:03N 23°20' W 021°22'0 0.0 21.4
2018-May-31 21:25N 23°20' W 021°22'1 3.7 21.4
2018-May-31 21:16N 23°20' W 021°22'0 0.0 21.4
2018-May-31 20:45N 23°20' W 021°22'0 0.0 21.4
2018-May-31 20:16N 23°20' W 021°22'0 0.0 21.4
2018-May-31 19:43N 23°20' W 021°22'1 1.1 21.4
2018-May-31 19:09N 23°19' W 021°22'0 0.0 21.4
2018-May-31 18:43N 23°19' W 021°22'3 1.7 21.4
2018-May-31 17:02N 23°19' W 021°19'0 0.0 21.4
2018-May-31 16:56N 23°19' W 021°19'0 0.0 21.4
2018-May-31 15:20N 23°19' W 021°19'0 0.0 21.4
2018-May-31 12:27N 23°19' W 021°19'0 0.0 21.3
2018-May-31 11:51N 23°19' W 021°19'1 1.1 21.3
2018-May-31 10:42N 23°19' W 021°17'0 0.0 21.3
2018-May-31 10:07N 23°19' W 021°17'1 4.4 21.3
2018-May-31 09:56N 23°20' W 021°18'1 0.4 21.2
2018-May-31 08:26N 23°20' W 021°17'1 9.0 21.2
2018-May-31 08:22N 23°20' W 021°17'0 0.0 21.2
2018-May-31 07:28N 23°20' W 021°17'0 0.0 21.2
2018-May-31 07:24N 23°20' W 021°17'0 0.0 21.2
2018-May-31 06:48N 23°20' W 021°17'1 0.8 21.3
2018-May-31 05:46N 23°20' W 021°18'0 0.0 21.3
2018-May-31 05:39N 23°20' W 021°18'0 0.0 21.3
2018-May-31 04:06N 23°20' W 021°18'1 8.1 21.3
2018-May-31 04:00N 23°20' W 021°19'0 0.0 21.3
2018-May-31 00:02N 23°20' W 021°19'235.2 21.4
2018-May-30 23:59N 23°20' W 021°20'0 0.0 21.4
2018-May-30 23:15N 23°20' W 021°20'0 0.0 21.4
2018-May-30 22:24N 23°20' W 021°20'0 0.0 21.4
2018-May-30 22:21N 23°20' W 021°20'2 2.2 21.4
2018-May-30 21:32N 23°19' W 021°19'0 0.0 21.4
2018-May-30 21:15N 23°19' W 021°19'0 0.0 21.4
2018-May-30 19:55N 23°19' W 021°19'0 0.0 21.4
2018-May-30 19:41N 23°19' W 021°19'1 1.5 21.4
2018-May-30 19:08N 23°19' W 021°18'0 0.0 21.4
2018-May-30 17:55N 23°19' W 021°18'0 0.0 21.4
2018-May-30 17:15N 23°19' W 021°18'227.4 21.4
2018-May-30 17:10N 23°18' W 021°16'0 0.0 21.4
2018-May-30 15:32N 23°18' W 021°16'0 0.0 21.4
2018-May-30 12:48N 23°18' W 021°16'0 0.0 21.3
2018-May-30 12:01N 23°18' W 021°16'0 0.0 21.2
2018-May-30 11:09N 23°18' W 021°16'1 5.5 21.2
2018-May-30 11:03N 23°18' W 021°15'1 0.7 21.2
2018-May-30 10:16N 23°18' W 021°16'1 6.0 21.2
2018-May-30 10:10N 23°19' W 021°16'0 0.0 21.2
2018-May-30 09:30N 23°19' W 021°16'133.1 21.2
2018-May-30 09:29N 23°19' W 021°15'1 4.1 21.2
2018-May-30 09:21N 23°19' W 021°16'0 0.0 21.2
2018-May-30 08:54N 23°19' W 021°16'0 0.0 21.2
2018-May-30 08:30N 23°19' W 021°16'0 0.0 21.2
2018-May-30 08:00N 23°19' W 021°16'1 5.8 21.2
2018-May-30 07:47N 23°19' W 021°14'0 0.0 21.2
2018-May-30 07:34N 23°19' W 021°14'1 2.0 21.2
2018-May-30 07:16N 23°19' W 021°14'1 0.5 21.2
2018-May-30 06:00N 23°19' W 021°14'0 0.0 21.2
2018-May-30 05:56N 23°19' W 021°14'1 6.6 21.2
2018-May-30 05:51N 23°19' W 021°15'1 2.5 21.2
2018-May-30 05:38N 23°19' W 021°14'1 0.4 21.2
2018-May-30 04:14N 23°19' W 021°15'0 0.0 21.3
2018-May-29 23:42N 23°19' W 021°15'0 0.0 21.3
2018-May-29 22:46N 23°19' W 021°15'0 0.0 21.3
2018-May-29 22:40N 23°19' W 021°15'1 0.9 21.3
2018-May-29 22:04N 23°19' W 021°16'0 0.0 21.3
2018-May-29 21:55N 23°19' W 021°16'0 0.0 21.3
2018-May-29 21:49N 23°19' W 021°16'0 0.0 21.3
2018-May-29 21:13N 23°19' W 021°16'0 0.0 21.3
2018-May-29 21:04N 23°19' W 021°16'0 0.0 21.3
2018-May-29 21:00N 23°19' W 021°16'0 0.0 21.3
2018-May-29 20:09N 23°19' W 021°16'111.0 21.3
2018-May-29 20:06N 23°19' W 021°16'1 1.6 21.3
2018-May-29 19:35N 23°20' W 021°17'1 8.1 21.4
2018-May-29 19:29N 23°19' W 021°16'1 2.1 21.4
2018-May-29 19:06N 23°20' W 021°17'0 0.0 21.4
2018-May-29 18:29N 23°20' W 021°17'1 1.3 21.4
2018-May-29 17:29N 23°19' W 021°16'1 6.0 21.4
2018-May-29 17:17N 23°17' W 021°16'0 0.0 21.4
2018-May-29 15:48N 23°17' W 021°16'1 0.1 21.4
2018-May-29 11:28N 23°17' W 021°16'0 0.0 21.2
2018-May-29 11:22N 23°17' W 021°16'0 0.0 21.2
2018-May-29 10:44N 23°17' W 021°16'0 0.0 21.2
2018-May-29 10:42N 23°17' W 021°16'1 4.7 21.1
2018-May-29 10:28N 23°17' W 021°14'0 0.0 21.1
2018-May-29 09:57N 23°17' W 021°14'0 0.0 21.1
2018-May-29 08:24N 23°17' W 021°14'0 0.0 21.1
2018-May-29 08:14N 23°17' W 021°14'0 0.0 21.1
2018-May-29 07:50N 23°17' W 021°14'0 0.0 21.1
2018-May-29 06:12N 23°17' W 021°14'0 0.0 21.1
2018-May-29 06:08N 23°17' W 021°14'1 0.3 21.1
2018-May-29 04:28N 23°17' W 021°14'224.5 21.1
2018-May-29 04:23N 23°19' W 021°12'0 0.0 21.1
2018-May-28 23:07N 23°19' W 021°12'1 1.0 21.2
2018-May-28 22:16N 23°18' W 021°13'0 0.0 21.2
2018-May-28 21:59N 23°18' W 021°13'1 1.4 21.2
2018-May-28 21:34N 23°19' W 021°13'0 0.0 21.2
2018-May-28 21:25N 23°19' W 021°13'1 4.0 21.2
2018-May-28 21:16N 23°19' W 021°13'0 0.0 21.2
2018-May-28 20:41N 23°19' W 021°13'1 1.4 21.3
2018-May-28 20:16N 23°19' W 021°13'1 2.0 21.3
2018-May-28 19:58N 23°19' W 021°13'0 0.0 21.3
2018-May-28 19:03N 23°19' W 021°13'1 0.8 21.3
2018-May-28 18:16N 23°20' W 021°13'1 1.4 21.4
2018-May-28 17:42N 23°19' W 021°13'1 0.7 21.4
2018-May-28 15:58N 23°20' W 021°13'0 0.0 21.4
2018-May-28 11:53N 23°20' W 021°13'1 5.5 21.1
2018-May-28 11:47N 23°20' W 021°14'116.3 21.1
2018-May-28 11:44N 23°20' W 021°13'0 0.0 21.1
2018-May-28 11:09N 23°20' W 021°13'0 0.0 21.1
2018-May-28 11:04N 23°20' W 021°13'0 0.0 21.1
2018-May-28 10:38N 23°20' W 021°13'0 0.0 21.1
2018-May-28 10:13N 23°20' W 021°13'0 0.0 21.0
2018-May-28 10:09N 23°20' W 021°13'112.0 21.0
2018-May-28 10:06N 23°19' W 021°13'0 0.0 21.0
2018-May-28 09:02N 23°19' W 021°13'0 0.0 21.0
2018-May-28 08:58N 23°19' W 021°13'0 0.0 21.0
2018-May-28 08:47N 23°19' W 021°13'1 1.6 21.0
2018-May-28 08:17N 23°20' W 021°13'118.0 21.0
2018-May-28 08:15N 23°19' W 021°13'0 0.0 21.0
2018-May-28 06:40N 23°19' W 021°13'0 0.0 21.0
2018-May-28 06:29N 23°19' W 021°13'0 0.0 21.0
2018-May-28 06:17N 23°19' W 021°13'1 8.3 21.0
2018-May-28 06:13N 23°19' W 021°12'0 0.0 21.0
2018-May-28 04:42N 23°19' W 021°12'321.5 21.1
2018-May-28 04:35N 23°20' W 021°10'0 0.0 21.1
2018-May-27 23:26N 23°20' W 021°10'1 0.8 21.1
2018-May-27 22:44N 23°20' W 021°09'1 6.6 21.1
2018-May-27 22:39N 23°20' W 021°10'1 8.3 21.1
2018-May-27 22:35N 23°20' W 021°09'0 0.0 21.1
2018-May-27 22:12N 23°20' W 021°09'1 3.3 21.1
2018-May-27 22:02N 23°20' W 021°10'0 0.0 21.1
2018-May-27 21:43N 23°20' W 021°10'1 8.3 21.1
2018-May-27 21:39N 23°20' W 021°09'0 0.0 21.1
2018-May-27 21:10N 23°20' W 021°09'1 0.9 21.2
2018-May-27 20:30N 23°21' W 021°09'0 0.0 21.2
2018-May-27 19:30N 23°21' W 021°09'0 0.0 21.2
2018-May-27 18:41N 23°21' W 021°09'1 0.8 21.2
2018-May-27 17:54N 23°22' W 021°09'1 5.4 21.2
2018-May-27 17:45N 23°22' W 021°08'0 0.0 21.2
2018-May-27 16:12N 23°22' W 021°08'0 0.0 21.2
2018-May-27 16:10N 23°22' W 021°08'2 0.4 21.2
2018-May-27 12:10N 23°24' W 021°08'1 0.6 21.1
2018-May-27 10:50N 23°23' W 021°09'1 1.3 21.1
2018-May-27 10:25N 23°23' W 021°08'1 0.4 21.1
2018-May-27 09:05N 23°23' W 021°09'0 0.0 21.0
2018-May-27 08:45N 23°23' W 021°09'0 0.0 21.0
2018-May-27 07:12N 23°23' W 021°09'0 0.0 21.0
2018-May-27 06:31N 23°23' W 021°09'112.2 21.0
2018-May-27 06:27N 23°24' W 021°08'0 0.0 21.0
2018-May-27 05:29N 23°24' W 021°08'1 0.1 21.0
2018-May-26 23:45N 23°23' W 021°08'0 0.0 21.1
2018-May-26 23:42N 23°23' W 021°08'0 0.0 21.1
2018-May-26 23:04N 23°23' W 021°08'1 4.1 21.1
2018-May-26 22:56N 23°23' W 021°08'0 0.0 21.1
2018-May-26 22:22N 23°23' W 021°08'0 0.0 21.1
2018-May-26 22:20N 23°23' W 021°08'0 0.0 21.1
2018-May-26 22:02N 23°23' W 021°08'1 1.5 21.1
2018-May-26 21:38N 23°24' W 021°08'0 0.0 21.1
2018-May-26 21:26N 23°24' W 021°08'1 5.5 21.1
2018-May-26 21:20N 23°24' W 021°07'1 1.1 21.1
2018-May-26 20:47N 23°23' W 021°07'0 0.0 21.1
2018-May-26 20:44N 23°23' W 021°07'0 0.0 21.1
2018-May-26 20:04N 23°23' W 021°07'0 0.0 21.1
2018-May-26 19:09N 23°23' W 021°07'1 0.7 21.1
2018-May-26 18:20N 23°23' W 021°07'0 0.0 21.2
2018-May-26 18:04N 23°23' W 021°07'216.3 21.2
2018-May-26 17:58N 23°25' W 021°05'0 0.0 21.2
2018-May-26 16:24N 23°25' W 021°05'314.4 21.2
2018-May-26 16:13N 23°27' W 021°04'0 0.0 21.2
2018-May-26 12:30N 23°27' W 021°04'0 0.0 21.1
2018-May-26 12:28N 23°27' W 021°04'0 0.0 21.1
2018-May-26 11:51N 23°27' W 021°04'1 4.7 21.0
2018-May-26 11:44N 23°27' W 021°05'0 0.0 21.0
2018-May-26 11:02N 23°27' W 021°05'0 0.0 21.0
2018-May-26 10:52N 23°27' W 021°05'1 1.2 21.0
2018-May-26 10:12N 23°28' W 021°04'0 0.0 21.0
2018-May-26 09:30N 23°28' W 021°04'0 0.0 21.0
2018-May-26 09:23N 23°28' W 021°04'1 4.1 21.0
2018-May-26 09:15N 23°28' W 021°05'0 0.0 21.0
2018-May-26 09:08N 23°28' W 021°05'0 0.0 21.0
2018-May-26 07:59N 23°28' W 021°05'0 0.0 21.0
2018-May-26 07:52N 23°28' W 021°05'0 0.0 21.0
2018-May-26 07:48N 23°28' W 021°05'0 0.0 21.0
2018-May-26 06:41N 23°28' W 021°05'1 0.9 21.0
2018-May-26 06:03N 23°28' W 021°05'2 1.7 21.0
2018-May-26 05:06N 23°28' W 021°07'316.7 21.0
2018-May-26 04:57N 23°29' W 021°05'   21.0

Dump ship's entire track history